createdAt,value
2023-05-24T00:00:44.064Z,20.83
2023-05-24T00:04:09.036Z,20.14
2023-05-24T00:07:30.959Z,21.28
2023-05-24T00:10:52.927Z,21.08
2023-05-24T00:14:15.980Z,20.75
2023-05-24T00:17:37.950Z,20.90
2023-05-24T00:21:00.953Z,21.40
2023-05-24T00:24:22.944Z,21.17
2023-05-24T00:27:46.014Z,21.84
2023-05-24T00:31:08.919Z,21.46
2023-05-24T00:34:32.936Z,21.33
2023-05-24T00:37:55.945Z,21.02
2023-05-24T00:41:20.053Z,21.59
2023-05-24T00:44:41.916Z,21.17
2023-05-24T00:48:04.000Z,22.18
2023-05-24T00:51:26.966Z,21.62
2023-05-24T00:54:49.975Z,22.22
2023-05-24T00:58:12.961Z,22.20
2023-05-24T01:01:39.011Z,22.62
2023-05-24T01:05:03.951Z,22.06
2023-05-24T01:08:39.075Z,22.59
2023-05-24T01:12:12.984Z,21.92
2023-05-24T01:16:04.105Z,21.45
2023-05-24T01:19:32.016Z,22.11
2023-05-24T01:22:58.004Z,22.30
2023-05-24T01:26:25.940Z,22.62
2023-05-24T01:29:48.988Z,22.90
2023-05-24T01:33:12.977Z,22.94
2023-05-24T01:36:35.080Z,22.45
2023-05-24T01:39:57.973Z,22.04
2023-05-24T01:43:29.037Z,22.27
2023-05-24T01:46:53.016Z,22.35
2023-05-24T01:50:18.039Z,22.25
2023-05-24T01:53:44.009Z,22.47
2023-05-24T01:57:08.011Z,22.69
2023-05-24T02:00:29.973Z,22.42
2023-05-24T02:03:53.994Z,22.75
2023-05-24T02:07:18.974Z,22.82
2023-05-24T02:10:42.151Z,22.71
2023-05-24T02:14:05.034Z,23.21
2023-05-24T02:17:27.091Z,22.35
2023-05-24T02:20:50.026Z,22.79
2023-05-24T02:24:15.087Z,22.12
2023-05-24T02:27:37.017Z,22.22
2023-05-24T02:30:59.051Z,22.63
2023-05-24T02:34:21.995Z,22.49
2023-05-24T02:37:44.009Z,22.85
2023-05-24T02:41:06.031Z,22.21
2023-05-24T02:44:28.015Z,22.40
2023-05-24T02:47:50.071Z,21.85
2023-05-24T02:51:11.991Z,22.13
2023-05-24T02:54:34.092Z,22.08
2023-05-24T02:57:57.046Z,22.31
2023-05-24T03:01:21.018Z,22.34
2023-05-24T03:04:46.016Z,21.92
2023-05-24T03:08:08.018Z,22.09
2023-05-24T03:11:31.006Z,21.75
2023-05-24T03:14:53.088Z,21.64
2023-05-24T03:18:15.013Z,21.46
2023-05-24T03:21:37.044Z,21.35
2023-05-24T03:24:59.994Z,20.96
2023-05-24T03:28:16.044Z,21.05
2023-05-24T03:31:33.608Z,20.72
2023-05-24T03:34:52.063Z,21.18
2023-05-24T03:38:14.015Z,20.59
2023-05-24T03:41:38.048Z,20.29
2023-05-24T03:45:01.014Z,20.37
2023-05-24T03:48:23.080Z,20.19
2023-05-24T03:51:45.103Z,20.16
2023-05-24T03:55:07.079Z,19.96
2023-05-24T03:58:32.047Z,19.79
2023-05-24T04:01:56.077Z,19.78
2023-05-24T04:05:19.017Z,19.69
2023-05-24T04:08:42.064Z,19.35
2023-05-24T04:12:04.058Z,19.34
2023-05-24T04:15:31.064Z,19.21
2023-05-24T04:18:53.195Z,18.92
2023-05-24T04:22:16.063Z,18.76
2023-05-24T04:25:41.070Z,18.56
2023-05-24T04:29:05.087Z,18.48
2023-05-24T04:32:21.316Z,18.20
2023-05-24T04:35:39.092Z,18.14
2023-05-24T04:39:04.071Z,17.98
2023-05-24T04:42:27.188Z,17.85
2023-05-24T04:45:50.093Z,17.74
2023-05-24T04:49:13.093Z,17.81
2023-05-24T04:52:36.084Z,17.56
2023-05-24T04:55:58.061Z,17.60
2023-05-24T04:59:21.112Z,17.44
2023-05-24T05:02:43.154Z,17.36
2023-05-24T05:06:05.074Z,17.31
2023-05-24T05:09:29.068Z,17.29
2023-05-24T05:12:51.078Z,17.28
2023-05-24T05:16:13.118Z,17.02
2023-05-24T05:19:35.118Z,16.86
2023-05-24T05:23:03.104Z,16.49
2023-05-24T05:26:26.130Z,16.44
2023-05-24T05:29:49.106Z,16.28
2023-05-24T05:33:14.150Z,16.05
2023-05-24T05:36:37.112Z,15.83
2023-05-24T05:39:59.103Z,15.66
2023-05-24T05:43:21.083Z,15.56
2023-05-24T05:46:44.203Z,15.52
2023-05-24T05:50:06.086Z,15.42
2023-05-24T05:53:30.106Z,15.30
2023-05-24T05:56:56.128Z,15.27
2023-05-24T06:00:19.149Z,15.14
2023-05-24T06:03:41.351Z,14.79
2023-05-24T06:07:05.140Z,14.71
2023-05-24T06:10:27.225Z,14.69
2023-05-24T06:13:49.112Z,14.55
2023-05-24T06:17:12.115Z,14.52
2023-05-24T06:20:34.226Z,14.41
2023-05-24T06:23:56.141Z,14.42
2023-05-24T06:27:20.134Z,14.31
2023-05-24T06:30:42.552Z,14.23
2023-05-24T06:34:06.113Z,14.11
2023-05-24T06:37:33.101Z,14.03
2023-05-24T06:40:55.134Z,13.94
2023-05-24T06:44:18.118Z,13.76
2023-05-24T06:47:40.250Z,13.77
2023-05-24T06:51:02.140Z,13.71
2023-05-24T06:54:24.150Z,13.61
2023-05-24T06:57:46.126Z,13.54
2023-05-24T07:01:09.260Z,13.40
2023-05-24T07:04:31.266Z,13.42
2023-05-24T07:07:57.158Z,13.47
2023-05-24T07:11:20.160Z,13.39
2023-05-24T07:14:42.180Z,13.28
2023-05-24T07:18:04.157Z,13.11
2023-05-24T07:21:26.137Z,13.14
2023-05-24T07:24:49.128Z,13.04
2023-05-24T07:28:12.195Z,13.00
2023-05-24T07:31:36.233Z,13.01
2023-05-24T07:35:00.185Z,12.87
2023-05-24T07:38:23.105Z,12.74
2023-05-24T07:41:45.179Z,12.70
2023-05-24T07:45:07.115Z,12.79
2023-05-24T07:48:30.307Z,12.70
2023-05-24T07:51:53.293Z,12.67
2023-05-24T07:55:16.154Z,12.42
2023-05-24T07:58:40.147Z,12.44
2023-05-24T08:02:02.262Z,12.41
2023-05-24T08:05:28.192Z,12.35
2023-05-24T08:08:50.192Z,12.24
2023-05-24T08:12:13.384Z,12.07
2023-05-24T08:15:38.286Z,12.15
2023-05-24T08:19:00.181Z,12.04
2023-05-24T08:22:22.210Z,11.99
2023-05-24T08:25:46.274Z,11.95
2023-05-24T08:29:09.197Z,12.02
2023-05-24T08:32:31.207Z,11.91
2023-05-24T08:35:53.196Z,11.84
2023-05-24T08:39:17.180Z,11.85
2023-05-24T08:42:40.189Z,11.77
2023-05-24T08:46:02.213Z,11.82
2023-05-24T08:49:25.187Z,11.81
2023-05-24T08:52:48.180Z,11.79
2023-05-24T08:56:11.178Z,11.56
2023-05-24T08:59:33.175Z,11.46
2023-05-24T09:02:57.233Z,11.45
2023-05-24T09:06:20.208Z,11.43
2023-05-24T09:09:44.205Z,11.39
2023-05-24T09:13:07.181Z,11.33
2023-05-24T09:16:29.259Z,11.23
2023-05-24T09:19:51.285Z,11.22
2023-05-24T09:23:15.163Z,11.14
2023-05-24T09:26:38.203Z,10.95
2023-05-24T09:30:01.225Z,11.03
2023-05-24T09:33:25.230Z,10.96
2023-05-24T09:36:40.806Z,10.96
2023-05-24T09:40:01.235Z,11.03
2023-05-24T09:43:26.334Z,10.91
2023-05-24T09:46:53.247Z,10.89
2023-05-24T09:50:12.241Z,10.79
2023-05-24T09:53:35.195Z,10.63
2023-05-24T09:56:57.228Z,10.69
2023-05-24T10:00:24.258Z,10.59
2023-05-24T10:03:46.297Z,10.54
2023-05-24T10:07:10.259Z,10.56
2023-05-24T10:10:33.213Z,10.73
2023-05-24T10:13:55.215Z,10.70
2023-05-24T10:17:18.213Z,10.76
2023-05-24T10:20:42.150Z,10.77
2023-05-24T10:24:06.916Z,10.54
2023-05-24T10:27:32.250Z,10.54
2023-05-24T10:31:05.275Z,10.69
2023-05-24T10:34:27.237Z,10.38
2023-05-24T10:37:44.101Z,10.28
2023-05-24T10:41:01.243Z,10.38
2023-05-24T10:44:26.237Z,10.35
2023-05-24T10:47:50.248Z,10.38
2023-05-24T10:51:15.229Z,10.41
2023-05-24T10:54:46.995Z,10.52
2023-05-24T10:58:20.218Z,10.58
2023-05-24T11:01:43.325Z,10.63
2023-05-24T11:05:07.235Z,10.57
2023-05-24T11:08:29.238Z,10.50
2023-05-24T11:11:53.229Z,10.47
2023-05-24T11:15:15.283Z,10.62
2023-05-24T11:18:39.253Z,10.47
2023-05-24T11:22:06.281Z,10.68
2023-05-24T11:25:28.246Z,11.04
2023-05-24T11:28:51.258Z,10.78
2023-05-24T11:32:15.281Z,10.81
2023-05-24T11:35:38.261Z,10.73
2023-05-24T11:38:54.822Z,10.72
2023-05-24T11:42:14.267Z,10.80
2023-05-24T11:45:36.289Z,10.67
2023-05-24T11:48:58.243Z,10.60
2023-05-24T11:52:22.282Z,10.56
2023-05-24T11:55:44.320Z,10.35
2023-05-24T11:59:07.255Z,10.32
2023-05-24T12:02:31.357Z,10.39
2023-05-24T12:05:54.290Z,10.05
2023-05-24T12:09:17.262Z,10.27
2023-05-24T12:12:45.806Z,10.21
2023-05-24T12:16:11.287Z,10.05
2023-05-24T12:19:37.489Z,9.95
2023-05-24T12:23:05.299Z,9.97
2023-05-24T12:26:29.281Z,10.04
2023-05-24T12:30:00.286Z,10.09
2023-05-24T12:33:22.288Z,9.80
2023-05-24T12:36:46.273Z,9.70
2023-05-24T12:40:03.230Z,9.62
2023-05-24T12:43:20.271Z,9.56
2023-05-24T12:46:43.281Z,9.71
2023-05-24T12:50:05.275Z,9.69
2023-05-24T12:53:28.280Z,9.80
2023-05-24T12:56:50.452Z,9.63
2023-05-24T13:00:13.268Z,9.27
2023-05-24T13:03:36.311Z,9.46
2023-05-24T13:06:58.312Z,9.34
2023-05-24T13:10:22.304Z,9.32
2023-05-24T13:13:44.333Z,9.45
2023-05-24T13:17:06.273Z,9.56
2023-05-24T13:20:32.350Z,9.54
2023-05-24T13:23:55.262Z,9.60
2023-05-24T13:27:17.314Z,9.55
2023-05-24T13:30:39.275Z,9.58
2023-05-24T13:34:01.306Z,9.55
2023-05-24T13:37:24.291Z,9.25
2023-05-24T13:40:47.587Z,9.18
2023-05-24T13:44:11.289Z,9.42
2023-05-24T13:47:40.096Z,9.51
2023-05-24T13:51:03.325Z,9.25
2023-05-24T13:54:26.462Z,9.32
2023-05-24T13:57:51.772Z,9.40
2023-05-24T14:01:15.358Z,9.22
2023-05-24T14:04:38.422Z,9.27
2023-05-24T14:08:01.367Z,9.33
2023-05-24T14:11:24.316Z,9.35
2023-05-24T14:18:15.305Z,9.39
2023-05-24T14:21:39.317Z,9.14
2023-05-24T14:25:01.304Z,9.27
2023-05-24T14:28:24.308Z,9.14
2023-05-24T14:31:50.343Z,9.14
2023-05-24T14:35:12.307Z,9.15
2023-05-24T14:38:34.314Z,9.25
2023-05-24T14:41:57.404Z,9.06
2023-05-24T14:45:20.299Z,9.19
2023-05-24T14:48:43.326Z,9.15
2023-05-24T14:52:06.316Z,9.01
2023-05-24T14:55:30.365Z,8.99
2023-05-24T14:58:53.231Z,8.94
2023-05-24T15:02:15.372Z,9.03
2023-05-24T15:05:37.370Z,8.98
2023-05-24T15:09:00.359Z,8.90
2023-05-24T15:12:17.321Z,8.89
2023-05-24T15:15:39.333Z,8.85
2023-05-24T15:19:01.374Z,8.82
2023-05-24T15:22:23.304Z,8.77
2023-05-24T15:25:46.358Z,8.94
2023-05-24T15:29:11.357Z,8.91
2023-05-24T15:32:34.364Z,8.73
2023-05-24T15:35:56.354Z,8.63
2023-05-24T15:39:19.356Z,8.39
2023-05-24T15:42:36.045Z,8.36
2023-05-24T15:45:59.366Z,8.49
2023-05-24T15:49:21.353Z,8.29
2023-05-24T15:52:44.366Z,8.44
2023-05-24T15:56:07.367Z,8.56
2023-05-24T15:59:30.328Z,8.46
2023-05-24T16:02:53.399Z,8.51
2023-05-24T16:06:15.353Z,8.41
2023-05-24T16:09:37.346Z,8.66
2023-05-24T16:13:00.364Z,8.52
2023-05-24T16:16:22.357Z,8.45
2023-05-24T16:19:46.438Z,8.39
2023-05-24T16:23:08.336Z,8.46
2023-05-24T16:26:30.360Z,8.35
2023-05-24T16:29:54.347Z,8.16
2023-05-24T16:33:17.413Z,8.34
2023-05-24T16:36:40.362Z,8.32
2023-05-24T16:40:03.344Z,8.27
2023-05-24T16:43:25.368Z,8.22
2023-05-24T16:46:49.394Z,8.31
2023-05-24T16:50:12.358Z,8.43
2023-05-24T16:53:34.373Z,8.56
2023-05-24T16:56:57.395Z,8.74
2023-05-24T17:00:20.367Z,8.81
2023-05-24T17:03:43.455Z,8.84
2023-05-24T17:07:05.355Z,8.70
2023-05-24T17:10:27.387Z,8.62
2023-05-24T17:13:50.428Z,8.59
2023-05-24T17:17:13.390Z,8.63
2023-05-24T17:20:35.427Z,8.51
2023-05-24T17:23:58.392Z,8.54
2023-05-24T17:27:22.336Z,8.37
2023-05-24T17:30:44.506Z,8.35
2023-05-24T17:34:06.373Z,8.41
2023-05-24T17:37:29.372Z,8.34
2023-05-24T17:40:56.359Z,8.13
2023-05-24T17:44:18.372Z,8.25
2023-05-24T17:47:42.401Z,8.33
2023-05-24T17:50:58.387Z,8.21
2023-05-24T17:54:20.369Z,8.18
2023-05-24T17:57:42.336Z,8.08
2023-05-24T18:01:04.426Z,8.06
2023-05-24T18:04:26.423Z,8.20
2023-05-24T18:07:49.386Z,8.19
2023-05-24T18:11:16.379Z,8.09
2023-05-24T18:14:40.449Z,7.92
2023-05-24T18:18:04.420Z,7.90
2023-05-24T18:21:26.429Z,7.88
2023-05-24T18:24:49.397Z,7.63
2023-05-24T18:28:12.424Z,7.79
2023-05-24T18:31:34.378Z,7.75
2023-05-24T18:34:57.396Z,7.74
2023-05-24T18:38:19.376Z,7.66
2023-05-24T18:41:41.386Z,7.62
2023-05-24T18:44:57.182Z,7.61
2023-05-24T18:48:14.420Z,7.54
2023-05-24T18:51:36.407Z,7.45
2023-05-24T18:54:52.405Z,7.56
2023-05-24T18:58:14.400Z,7.49
2023-05-24T19:01:36.411Z,7.51
2023-05-24T19:05:00.415Z,7.53
2023-05-24T19:08:23.446Z,7.73
2023-05-24T19:11:47.512Z,7.61
2023-05-24T19:15:10.425Z,7.52
2023-05-24T19:25:55.730Z,7.43
2023-05-24T19:29:17.423Z,7.50
2023-05-24T19:32:40.463Z,7.66
2023-05-24T19:36:02.421Z,7.62
2023-05-24T19:39:27.442Z,7.70
2023-05-24T19:42:49.404Z,7.68
2023-05-24T19:46:15.508Z,7.82
2023-05-24T19:49:39.398Z,7.86
2023-05-24T19:53:02.468Z,7.89
2023-05-24T19:56:25.414Z,7.96
2023-05-24T19:59:48.441Z,8.06
2023-05-24T20:03:13.559Z,8.09
2023-05-24T20:06:35.438Z,8.21
2023-05-24T20:09:58.422Z,8.21
2023-05-24T20:13:20.439Z,8.30
2023-05-24T20:16:37.479Z,8.43
2023-05-24T20:20:00.518Z,8.57
2023-05-24T20:23:22.451Z,8.70
2023-05-24T20:26:45.413Z,8.74
2023-05-24T20:30:07.449Z,8.97
2023-05-24T20:33:30.399Z,9.15
2023-05-24T20:36:52.606Z,9.19
2023-05-24T20:40:15.488Z,9.29
2023-05-24T20:43:39.477Z,9.44
2023-05-24T20:46:55.050Z,9.99
2023-05-24T20:50:12.445Z,12.65
2023-05-24T20:53:34.468Z,14.70
2023-05-24T20:56:57.500Z,15.72
2023-05-24T21:00:20.451Z,16.50
2023-05-24T21:03:43.513Z,17.15
2023-05-24T21:07:05.446Z,17.06
2023-05-24T21:10:35.474Z,16.67
2023-05-24T21:13:57.496Z,17.52
2023-05-24T21:17:19.521Z,16.59
2023-05-24T21:20:41.530Z,16.66
2023-05-24T21:24:05.488Z,16.18
2023-05-24T21:27:27.456Z,16.79
2023-05-24T21:30:50.506Z,16.99
2023-05-24T21:34:12.458Z,16.12
2023-05-24T21:37:34.476Z,16.05
2023-05-24T21:40:56.454Z,16.67
2023-05-24T21:44:20.458Z,17.88
2023-05-24T21:47:37.504Z,17.39
2023-05-24T21:50:54.460Z,17.88
2023-05-24T21:54:16.463Z,17.95
2023-05-24T21:57:39.577Z,18.27
2023-05-24T22:01:01.518Z,17.73
2023-05-24T22:04:24.587Z,18.09
2023-05-24T22:07:46.490Z,18.16
2023-05-24T22:11:08.487Z,18.77
2023-05-24T22:14:30.448Z,18.54
2023-05-24T22:17:53.558Z,19.15
2023-05-24T22:21:15.441Z,19.45
2023-05-24T22:24:37.474Z,18.12
2023-05-24T22:27:59.479Z,19.50
2023-05-24T22:31:23.563Z,19.54
2023-05-24T22:34:46.519Z,19.32
2023-05-24T22:38:09.533Z,19.69
2023-05-24T22:41:32.474Z,19.20
2023-05-24T22:44:54.518Z,19.53
2023-05-24T22:48:12.183Z,19.70
2023-05-24T22:51:29.566Z,19.58
2023-05-24T22:54:54.491Z,19.27
2023-05-24T22:58:17.519Z,19.20
2023-05-24T23:01:41.609Z,19.05
2023-05-24T23:05:04.628Z,18.98
2023-05-24T23:08:29.488Z,19.35
2023-05-24T23:11:54.568Z,18.68
2023-05-24T23:15:17.535Z,18.81
2023-05-24T23:18:40.547Z,19.01
2023-05-24T23:22:03.547Z,18.59
2023-05-24T23:25:25.508Z,18.52
2023-05-24T23:28:49.579Z,18.24
2023-05-24T23:32:11.493Z,18.85
2023-05-24T23:35:34.558Z,19.18
2023-05-24T23:38:56.501Z,18.37
2023-05-24T23:42:19.634Z,19.54
2023-05-24T23:45:41.580Z,19.47
2023-05-24T23:49:03.534Z,20.49
2023-05-24T23:52:27.512Z,19.54
2023-05-24T23:55:50.570Z,18.85
2023-05-24T23:59:14.521Z,19.52
